FMNM Airport Information

Runway Information
Runway 14 Length 7218 ft width 148 ft
Elevation 35 ft Threshold 0 ft Heading 132
Runway 32 Length 7218 ft Width 148 ft
Elevation 87 ft Threshold 0 ft Heading 312
Airport Frequencies
Type A/G Name MAHAJANGA Frequency 563.4 MHZ
Type TWR Name MAHAJANGA Frequency 119.1 MHZ
Airport Navaids
Type VOR-DME Name Philibert Tsiranana Frequency 112100 KHZ
Type NDB Name Mahajanga Frequency 326 KHZ
Airport Weather Information & NOTAM
ADDS - METARS form results

(0926 UTC 25 August 2019)
Data provider http://aviationweather.gov/metar/data/
 
METAR text: FMNM 250900Z 15012KT 120V210 CAVOK 32/12 Q1017 NOSIG
Conditions at: FMNM (MAJUNGA/MAHAJANG, KM) observed 0900 UTC 25 August 2019
Temperature: 32.0°C (90°F)
Dewpoint: 12.0°C (54°F) [RH = 30%]
Pressure (altimeter): 30.03 inches Hg (1017.0 mb)
Winds: from the SSE (150 degrees) at 14 MPH (12 knots; 6.2 m/s)
Visibility: 6 or more miles (10+ km)
Ceiling: ceiling and visibility are OK
Clouds: unknown
Weather: no significant weather observed at this time

Forecast for: FMNM (MAJUNGA/MAHAJANG, KM)
Text: TAF FMNM 250500Z 2506/2606 12008KT 9999 FEW023
Forecast period: 0600 UTC 25 August 2019 to 0600 UTC 26 August 2019
Forecast type: FROM: standard forecast or significant change
Winds: from the ESE (120 degrees) at 9 MPH (8 knots; 4.1 m/s)
Visibility: 6 or more miles 10+ km)
Ceiling: at least 12,000 feet AGL
Clouds: few clouds at 2300 feet AGL
Weather: no significant weather forecast for this period